createdAt,value
2018-03-30T00:01:48.914Z,5.00
2018-03-30T00:04:16.468Z,5.00
2018-03-30T00:06:44.703Z,4.90
2018-03-30T00:09:26.633Z,4.80
2018-03-30T00:11:55.360Z,4.50
2018-03-30T00:14:22.843Z,4.50
2018-03-30T00:16:50.364Z,4.40
2018-03-30T00:19:17.841Z,4.40
2018-03-30T00:21:45.379Z,4.40
2018-03-30T00:24:12.855Z,4.30
2018-03-30T00:26:40.369Z,4.30
2018-03-30T00:29:08.653Z,4.30
2018-03-30T00:31:36.955Z,4.30
2018-03-30T00:34:08.171Z,4.30
2018-03-30T00:36:35.665Z,4.30
2018-03-30T00:39:03.154Z,4.40
2018-03-30T00:41:31.405Z,4.30
2018-03-30T00:43:58.899Z,4.30
2018-03-30T00:46:26.380Z,4.30
2018-03-30T00:48:54.653Z,4.40
2018-03-30T00:51:22.132Z,4.40
2018-03-30T00:53:49.626Z,4.40
2018-03-30T00:56:17.103Z,4.40
2018-03-30T00:58:44.595Z,4.50
2018-03-30T01:01:12.878Z,4.40
2018-03-30T01:03:40.360Z,4.50
2018-03-30T01:06:07.872Z,4.50
2018-03-30T01:08:35.391Z,4.50
2018-03-30T01:11:09.495Z,4.50
2018-03-30T01:13:37.763Z,4.50
2018-03-30T01:16:05.271Z,4.50
2018-03-30T01:18:32.785Z,4.60
2018-03-30T01:21:00.259Z,4.60
2018-03-30T01:23:27.772Z,4.60
2018-03-30T01:25:55.247Z,4.60
2018-03-30T01:28:22.747Z,4.60
2018-03-30T01:30:50.220Z,4.70
2018-03-30T01:33:17.723Z,4.70
2018-03-30T01:35:45.206Z,4.70
2018-03-30T01:38:13.489Z,4.70
2018-03-30T01:40:40.973Z,4.70
2018-03-30T01:43:09.229Z,4.70
2018-03-30T01:45:36.735Z,4.70
2018-03-30T01:48:05.012Z,4.70
2018-03-30T01:50:33.334Z,4.70
2018-03-30T01:53:00.852Z,4.70
2018-03-30T01:55:28.334Z,4.70
2018-03-30T01:57:55.810Z,4.70
2018-03-30T02:00:23.322Z,4.70
2018-03-30T02:02:50.799Z,4.70
2018-03-30T02:05:18.307Z,4.70
2018-03-30T02:07:45.793Z,4.80
2018-03-30T02:10:13.647Z,4.80
2018-03-30T02:12:41.127Z,4.80
2018-03-30T02:15:08.676Z,4.80
2018-03-30T02:17:37.116Z,4.80
2018-03-30T02:20:04.622Z,4.90
2018-03-30T02:22:32.100Z,4.90
2018-03-30T02:24:59.619Z,5.00
2018-03-30T02:27:27.197Z,4.90
2018-03-30T02:29:54.737Z,4.90
2018-03-30T02:32:22.208Z,4.90
2018-03-30T02:34:49.683Z,4.90
2018-03-30T02:37:17.209Z,4.90
2018-03-30T02:39:45.487Z,4.80
2018-03-30T02:42:13.996Z,4.90
2018-03-30T02:44:41.820Z,4.90
2018-03-30T02:47:09.308Z,4.90
2018-03-30T02:49:36.780Z,4.90
2018-03-30T02:52:04.284Z,4.90
2018-03-30T02:54:31.785Z,4.90
2018-03-30T02:56:59.301Z,4.90
2018-03-30T02:59:26.783Z,4.90
2018-03-30T03:01:55.059Z,4.80
2018-03-30T03:04:22.777Z,4.80
2018-03-30T03:06:50.342Z,4.80
2018-03-30T03:09:17.859Z,4.80
2018-03-30T03:11:45.384Z,4.80
2018-03-30T03:14:13.036Z,4.80
2018-03-30T03:16:40.680Z,4.80
2018-03-30T03:19:08.171Z,4.80
2018-03-30T03:21:35.703Z,4.70
2018-03-30T03:24:03.194Z,4.70
2018-03-30T03:26:30.953Z,4.70
2018-03-30T03:28:58.547Z,4.70
2018-03-30T03:31:26.052Z,4.70
2018-03-30T03:33:54.310Z,4.80
2018-03-30T03:36:21.819Z,4.80
2018-03-30T03:38:49.298Z,4.90
2018-03-30T03:41:16.813Z,4.90
2018-03-30T03:43:44.283Z,4.90
2018-03-30T03:46:11.791Z,5.00
2018-03-30T03:48:39.560Z,5.00
2018-03-30T03:51:07.066Z,5.00
2018-03-30T03:53:34.579Z,5.00
2018-03-30T03:56:02.066Z,5.00
2018-03-30T03:58:29.568Z,5.00
2018-03-30T04:00:57.050Z,5.00
2018-03-30T04:03:24.551Z,5.00
2018-03-30T04:05:52.027Z,5.00
2018-03-30T04:08:19.575Z,5.00
2018-03-30T04:10:47.908Z,5.00
2018-03-30T04:13:15.414Z,5.10
2018-03-30T04:15:43.884Z,5.00
2018-03-30T04:18:11.391Z,5.10
2018-03-30T04:20:38.896Z,5.10
2018-03-30T04:23:06.399Z,5.30
2018-03-30T04:25:34.769Z,5.30
2018-03-30T04:28:02.334Z,5.30
2018-03-30T04:30:29.765Z,5.30
2018-03-30T04:32:57.269Z,5.30
2018-03-30T04:35:24.766Z,5.30
2018-03-30T04:37:52.274Z,5.30
2018-03-30T04:40:19.795Z,5.30
2018-03-30T04:42:47.274Z,5.30
2018-03-30T04:45:14.784Z,5.20
2018-03-30T04:47:42.268Z,5.20
2018-03-30T04:50:09.782Z,5.20
2018-03-30T04:52:39.520Z,5.20
2018-03-30T04:55:07.112Z,5.20
2018-03-30T04:57:34.819Z,5.20
2018-03-30T05:00:02.347Z,5.10
2018-03-30T05:02:29.823Z,5.00
2018-03-30T05:04:58.096Z,4.80
2018-03-30T05:07:25.576Z,4.80
2018-03-30T05:09:53.547Z,4.90
2018-03-30T05:12:21.028Z,4.90
2018-03-30T05:14:48.547Z,5.00
2018-03-30T05:17:16.039Z,5.10
2018-03-30T05:19:43.559Z,5.10
2018-03-30T05:22:12.542Z,5.20
2018-03-30T05:24:40.051Z,5.20
2018-03-30T05:27:07.551Z,5.20
2018-03-30T05:29:36.260Z,5.20
2018-03-30T05:32:03.752Z,5.20
2018-03-30T05:34:31.233Z,5.30
2018-03-30T05:36:59.554Z,5.40
2018-03-30T05:39:27.040Z,5.30
2018-03-30T05:41:54.547Z,5.30
2018-03-30T05:44:22.050Z,5.40
2018-03-30T05:46:50.327Z,5.50
2018-03-30T05:49:18.860Z,5.50
2018-03-30T05:51:46.384Z,5.50
2018-03-30T05:54:13.883Z,5.60
2018-03-30T05:56:42.173Z,5.90
2018-03-30T05:59:09.652Z,5.80
2018-03-30T06:01:37.171Z,6.00
2018-03-30T06:04:04.655Z,6.10
2018-03-30T06:06:32.183Z,6.30
2018-03-30T06:09:00.004Z,6.40
2018-03-30T06:11:27.520Z,6.50
2018-03-30T06:13:55.416Z,6.70
2018-03-30T06:16:22.929Z,6.80
2018-03-30T06:18:50.415Z,6.90
2018-03-30T06:21:17.938Z,7.00
2018-03-30T06:23:45.727Z,7.00
2018-03-30T06:26:13.247Z,7.00
2018-03-30T06:28:41.537Z,7.20
2018-03-30T06:31:09.952Z,7.10
2018-03-30T06:33:37.903Z,7.30
2018-03-30T06:36:06.158Z,7.50
2018-03-30T06:38:33.678Z,7.50
2018-03-30T06:41:01.154Z,7.70
2018-03-30T06:43:28.680Z,7.90
2018-03-30T06:45:56.180Z,8.10
2018-03-30T06:48:24.455Z,8.40
2018-03-30T06:50:51.949Z,8.40
2018-03-30T06:53:20.224Z,8.70
2018-03-30T06:55:51.943Z,8.70
2018-03-30T06:58:19.499Z,8.70
2018-03-30T07:00:46.971Z,8.90
2018-03-30T07:03:15.195Z,9.00
2018-03-30T07:05:42.674Z,9.20
2018-03-30T07:08:10.211Z,10.00
2018-03-30T07:10:37.688Z,12.30
2018-03-30T07:13:05.197Z,14.50
2018-03-30T07:15:32.683Z,15.20
2018-03-30T07:18:00.970Z,15.50
2018-03-30T07:20:29.233Z,16.30
2018-03-30T07:22:56.774Z,16.20
2018-03-30T07:25:24.305Z,16.80
2018-03-30T07:27:52.557Z,16.70
2018-03-30T07:30:20.091Z,16.70
2018-03-30T07:32:48.470Z,17.00
2018-03-30T07:35:15.967Z,17.10
2018-03-30T07:37:43.491Z,18.10
2018-03-30T07:40:11.015Z,18.60
2018-03-30T07:42:38.499Z,17.60
2018-03-30T07:45:06.015Z,17.90
2018-03-30T07:47:35.830Z,17.10
2018-03-30T07:50:03.381Z,17.10
2018-03-30T07:52:30.845Z,16.90
2018-03-30T07:54:59.171Z,17.30
2018-03-30T07:57:27.430Z,17.60
2018-03-30T07:59:55.028Z,17.60
2018-03-30T08:02:23.793Z,16.40
2018-03-30T08:04:51.303Z,16.30
2018-03-30T08:07:19.695Z,17.40
2018-03-30T08:09:47.987Z,18.10
2018-03-30T08:12:16.252Z,19.70
2018-03-30T08:14:43.740Z,19.70
2018-03-30T08:17:11.705Z,19.40
2018-03-30T08:19:39.243Z,18.30
2018-03-30T08:22:06.801Z,19.50
2018-03-30T08:24:34.290Z,21.20
2018-03-30T08:27:01.776Z,21.60
2018-03-30T08:29:29.287Z,21.90
2018-03-30T08:31:57.630Z,22.30
2018-03-30T08:34:25.127Z,22.20
2018-03-30T08:36:52.640Z,21.60
2018-03-30T08:39:20.129Z,21.80
2018-03-30T08:41:47.672Z,21.30
2018-03-30T08:44:15.144Z,21.90
2018-03-30T08:46:43.442Z,22.80
2018-03-30T08:49:10.932Z,22.70
2018-03-30T08:51:38.446Z,23.20
2018-03-30T08:54:05.923Z,20.60
2018-03-30T08:56:33.444Z,21.50
2018-03-30T08:59:00.924Z,21.20
2018-03-30T09:01:28.448Z,21.80
2018-03-30T09:03:56.697Z,21.90
2018-03-30T09:06:25.134Z,21.90
2018-03-30T09:08:52.803Z,22.40
2018-03-30T09:11:21.099Z,21.30
2018-03-30T09:13:49.359Z,20.30
2018-03-30T09:16:16.850Z,20.20
2018-03-30T09:18:44.365Z,20.10
2018-03-30T09:21:14.317Z,20.60
2018-03-30T09:23:47.979Z,20.10
2018-03-30T09:26:16.425Z,21.30
2018-03-30T09:28:43.935Z,21.30
2018-03-30T09:31:12.184Z,21.60
2018-03-30T09:33:39.699Z,21.60
2018-03-30T09:36:07.947Z,22.40
2018-03-30T09:38:36.359Z,22.40
2018-03-30T09:41:03.865Z,22.50
2018-03-30T09:43:31.395Z,22.30
2018-03-30T09:45:58.871Z,21.20
2018-03-30T09:48:26.386Z,20.30
2018-03-30T09:50:53.873Z,20.70
2018-03-30T09:53:22.248Z,20.20
2018-03-30T09:55:49.743Z,20.10
2018-03-30T09:58:17.268Z,20.30
2018-03-30T10:00:45.518Z,20.70
2018-03-30T10:03:13.042Z,20.70
2018-03-30T10:05:41.287Z,20.70
2018-03-30T10:08:08.895Z,20.80
2018-03-30T10:10:37.144Z,19.30
2018-03-30T10:13:04.630Z,19.30
2018-03-30T10:15:32.138Z,20.10
2018-03-30T10:17:59.615Z,20.50
2018-03-30T10:20:32.646Z,20.50
2018-03-30T10:23:02.969Z,19.80
2018-03-30T10:25:30.532Z,19.80
2018-03-30T10:27:57.983Z,20.00
2018-03-30T10:30:26.263Z,20.50
2018-03-30T10:32:53.771Z,20.50
2018-03-30T10:35:21.258Z,20.60
2018-03-30T10:37:48.775Z,20.60
2018-03-30T10:40:17.052Z,20.80
2018-03-30T10:42:44.543Z,20.80
2018-03-30T10:45:12.827Z,21.90
2018-03-30T10:47:40.310Z,21.90
2018-03-30T10:50:07.835Z,21.50
2018-03-30T10:52:35.311Z,21.20
2018-03-30T10:55:07.570Z,21.40
2018-03-30T10:57:35.867Z,20.20
2018-03-30T11:00:04.300Z,20.10
2018-03-30T11:02:31.840Z,19.80
2018-03-30T11:04:59.352Z,19.20
2018-03-30T11:07:27.603Z,17.00
2018-03-30T11:09:55.119Z,17.00
2018-03-30T11:12:22.595Z,16.00
2018-03-30T11:14:50.110Z,15.40
2018-03-30T11:17:17.623Z,15.40
2018-03-30T11:19:45.867Z,15.10
2018-03-30T11:22:13.383Z,15.10
2018-03-30T11:24:40.933Z,14.80
2018-03-30T11:27:08.424Z,14.90
2018-03-30T11:29:36.667Z,15.00
2018-03-30T11:32:04.182Z,14.90
2018-03-30T11:34:32.436Z,14.70
2018-03-30T11:36:59.970Z,14.60
2018-03-30T11:39:27.464Z,14.70
2018-03-30T11:41:54.975Z,14.60
2018-03-30T11:44:22.451Z,14.50
2018-03-30T11:46:49.983Z,14.70
2018-03-30T11:49:17.475Z,14.70
2018-03-30T11:51:44.996Z,14.80
2018-03-30T11:54:12.477Z,14.70
2018-03-30T11:56:39.988Z,14.70
2018-03-30T11:59:07.471Z,14.90
2018-03-30T12:01:35.000Z,14.90
2018-03-30T12:04:02.493Z,14.70
2018-03-30T12:06:29.981Z,15.00
2018-03-30T12:08:57.497Z,15.00
2018-03-30T12:11:34.443Z,15.00
2018-03-30T12:14:01.960Z,15.00
2018-03-30T12:16:29.452Z,15.00
2018-03-30T12:18:56.964Z,15.20
2018-03-30T12:21:24.455Z,15.20
2018-03-30T12:23:51.975Z,14.90
2018-03-30T12:26:19.467Z,14.80
2018-03-30T12:28:46.974Z,15.00
2018-03-30T12:31:15.219Z,15.00
2018-03-30T12:33:42.735Z,14.90
2018-03-30T12:36:10.983Z,15.10
2018-03-30T12:38:38.493Z,15.10
2018-03-30T12:41:06.737Z,15.80
2018-03-30T12:43:34.258Z,15.80
2018-03-30T12:46:01.741Z,16.00
2018-03-30T12:48:29.260Z,16.00
2018-03-30T12:50:56.735Z,16.10
2018-03-30T12:53:24.285Z,16.30
2018-03-30T12:55:51.755Z,16.10
2018-03-30T12:58:20.928Z,16.00
2018-03-30T13:00:48.415Z,16.00
2018-03-30T13:03:15.903Z,16.20
2018-03-30T13:05:43.407Z,16.50
2018-03-30T13:08:10.891Z,16.90
2018-03-30T13:10:38.410Z,16.90
2018-03-30T13:13:05.888Z,16.80
2018-03-30T13:15:33.397Z,17.00
2018-03-30T13:18:00.883Z,17.10
2018-03-30T13:20:29.163Z,17.10
2018-03-30T13:22:57.410Z,16.60
2018-03-30T13:25:24.919Z,16.50
2018-03-30T13:27:52.395Z,16.20
2018-03-30T13:30:20.658Z,16.20
2018-03-30T13:32:48.159Z,16.10
2018-03-30T13:35:16.452Z,15.30
2018-03-30T13:37:44.699Z,15.00
2018-03-30T13:40:12.227Z,15.00
2018-03-30T13:42:39.704Z,15.00
2018-03-30T13:45:07.217Z,14.90
2018-03-30T13:47:34.708Z,14.80
2018-03-30T13:50:02.227Z,14.90
2018-03-30T13:52:37.504Z,15.00
2018-03-30T13:55:12.975Z,15.20
2018-03-30T13:57:44.219Z,15.30
2018-03-30T14:00:24.343Z,15.40
2018-03-30T14:03:07.467Z,15.40
2018-03-30T14:08:42.959Z,15.60
2018-03-30T14:11:16.364Z,15.40
2018-03-30T14:13:43.875Z,15.30
2018-03-30T14:16:27.494Z,15.30
2018-03-30T14:18:59.494Z,15.10
2018-03-30T14:21:29.929Z,15.00
2018-03-30T14:24:01.117Z,14.90
2018-03-30T14:26:37.163Z,15.10
2018-03-30T14:29:16.329Z,15.20
2018-03-30T14:31:43.800Z,15.20
2018-03-30T14:34:13.911Z,15.20
2018-03-30T14:36:47.087Z,15.20
2018-03-30T14:39:16.304Z,15.30
2018-03-30T14:41:44.590Z,14.80
2018-03-30T14:44:12.111Z,14.80
2018-03-30T14:46:54.486Z,14.80
2018-03-30T14:49:36.915Z,14.70
2018-03-30T14:52:09.852Z,14.70
2018-03-30T14:54:39.157Z,14.70
2018-03-30T14:57:06.599Z,14.70
2018-03-30T14:59:39.507Z,14.60
2018-03-30T15:02:10.415Z,14.70
2018-03-30T15:07:59.405Z,14.60
2018-03-30T15:10:52.669Z,14.70
2018-03-30T15:13:30.127Z,14.70
2018-03-30T15:16:04.346Z,14.80
2018-03-30T15:18:33.581Z,14.90
2018-03-30T15:21:04.871Z,14.70
2018-03-30T15:23:36.543Z,14.70
2018-03-30T15:26:07.644Z,14.70
2018-03-30T15:28:36.568Z,14.80
2018-03-30T15:31:16.403Z,14.60
2018-03-30T15:33:49.189Z,14.50
2018-03-30T15:36:25.091Z,14.60
2018-03-30T15:38:52.627Z,14.40
2018-03-30T15:41:20.112Z,14.40
2018-03-30T15:43:48.573Z,14.20
2018-03-30T15:46:17.095Z,14.20
2018-03-30T15:48:44.591Z,14.10
2018-03-30T15:54:11.301Z,13.80
2018-03-30T15:56:41.544Z,14.00
2018-03-30T15:59:09.063Z,13.90
2018-03-30T16:01:36.579Z,14.00
2018-03-30T16:04:04.839Z,14.10
2018-03-30T16:06:32.378Z,14.10
2018-03-30T16:08:59.967Z,14.10
2018-03-30T16:11:31.383Z,14.10
2018-03-30T16:13:58.868Z,14.20
2018-03-30T16:16:26.392Z,14.20
2018-03-30T16:18:56.211Z,14.10
2018-03-30T16:21:23.272Z,14.00
2018-03-30T16:23:50.275Z,14.10
2018-03-30T16:26:17.296Z,14.00
2018-03-30T16:28:44.316Z,14.00
2018-03-30T16:31:11.304Z,14.10
2018-03-30T16:33:38.347Z,13.90
2018-03-30T16:36:05.331Z,13.80
2018-03-30T16:38:32.389Z,13.80
2018-03-30T16:40:59.448Z,13.60
2018-03-30T16:43:26.479Z,13.50
2018-03-30T16:45:53.510Z,13.50
2018-03-30T16:48:20.887Z,13.30
2018-03-30T16:50:48.405Z,13.20
2018-03-30T16:53:16.044Z,13.10
2018-03-30T16:55:43.131Z,13.00
2018-03-30T16:58:10.156Z,12.90
2018-03-30T17:00:37.149Z,12.80
2018-03-30T17:03:04.175Z,12.70
2018-03-30T17:05:31.200Z,12.70
2018-03-30T17:07:58.234Z,12.60
2018-03-30T17:10:25.231Z,12.60
2018-03-30T17:12:53.044Z,12.40
2018-03-30T17:15:20.047Z,12.40
2018-03-30T17:17:47.043Z,12.30
2018-03-30T17:20:14.068Z,12.30
2018-03-30T17:22:41.584Z,12.30
2018-03-30T17:25:08.818Z,12.30
2018-03-30T17:27:35.808Z,12.30
2018-03-30T17:30:02.879Z,12.30
2018-03-30T17:32:29.885Z,12.10
2018-03-30T17:34:57.060Z,12.00
2018-03-30T17:37:24.219Z,11.90
2018-03-30T17:39:51.256Z,11.90
2018-03-30T17:42:18.298Z,11.80
2018-03-30T17:44:45.360Z,11.80
2018-03-30T17:47:12.349Z,11.70
2018-03-30T17:49:39.398Z,11.60
2018-03-30T17:52:08.224Z,11.50
2018-03-30T17:54:35.989Z,11.40
2018-03-30T17:57:02.987Z,11.30
2018-03-30T17:59:30.016Z,11.10
2018-03-30T18:01:57.016Z,11.00
2018-03-30T18:04:24.041Z,10.90
2018-03-30T18:06:51.806Z,10.70
2018-03-30T18:09:18.865Z,10.70
2018-03-30T18:11:46.084Z,10.70
2018-03-30T18:14:13.116Z,10.70
2018-03-30T18:16:40.920Z,10.50
2018-03-30T18:19:07.904Z,10.60
2018-03-30T18:21:34.965Z,10.60
2018-03-30T18:24:01.948Z,10.50
2018-03-30T18:26:28.983Z,10.50
2018-03-30T18:28:56.000Z,10.40
2018-03-30T18:31:23.035Z,10.30
2018-03-30T18:33:50.814Z,10.20
2018-03-30T18:36:18.620Z,10.20
2018-03-30T18:38:45.610Z,10.10
2018-03-30T18:42:33.716Z,10.10
2018-03-30T18:45:01.323Z,10.10
2018-03-30T18:47:28.348Z,10.10
2018-03-30T18:49:55.334Z,10.00
2018-03-30T18:52:22.368Z,10.00
2018-03-30T18:54:49.363Z,10.00
2018-03-30T18:57:16.483Z,10.00
2018-03-30T18:59:43.548Z,10.00
2018-03-30T19:02:10.572Z,10.00
2018-03-30T19:04:37.593Z,10.10
2018-03-30T19:07:04.627Z,10.00
2018-03-30T19:09:31.627Z,10.00
2018-03-30T19:11:58.653Z,9.90
2018-03-30T19:14:26.418Z,9.80
2018-03-30T19:16:53.443Z,9.80
2018-03-30T19:19:20.425Z,9.70
2018-03-30T19:21:47.472Z,9.70
2018-03-30T19:24:14.459Z,9.70
2018-03-30T19:26:41.479Z,9.70
2018-03-30T19:29:08.490Z,9.60
2018-03-30T19:31:35.633Z,9.50
2018-03-30T19:34:02.659Z,9.50
2018-03-30T19:36:29.723Z,9.40
2018-03-30T19:38:56.776Z,9.40
2018-03-30T19:41:23.771Z,9.20
2018-03-30T19:43:51.008Z,9.10
2018-03-30T19:46:18.013Z,9.20
2018-03-30T19:48:45.043Z,9.20
2018-03-30T19:51:13.163Z,9.30
2018-03-30T19:53:40.196Z,9.20
2018-03-30T19:56:07.206Z,9.00
2018-03-30T19:58:34.384Z,8.80
2018-03-30T20:01:01.379Z,8.80
2018-03-30T20:03:28.398Z,8.70
2018-03-30T20:05:55.434Z,8.60
2018-03-30T20:08:22.540Z,8.60
2018-03-30T20:10:49.539Z,8.50
2018-03-30T20:13:16.598Z,8.60
2018-03-30T20:15:44.367Z,8.60
2018-03-30T20:18:11.384Z,8.50
2018-03-30T20:20:38.374Z,8.50
2018-03-30T20:23:05.420Z,8.50
2018-03-30T20:25:32.411Z,8.50
2018-03-30T20:27:59.427Z,8.40
2018-03-30T20:30:26.450Z,8.50
2018-03-30T20:32:54.260Z,8.40
2018-03-30T20:35:23.012Z,8.40
2018-03-30T20:37:50.840Z,8.40
2018-03-30T20:40:17.892Z,8.40
2018-03-30T20:42:44.898Z,8.30
2018-03-30T20:45:11.923Z,8.30
2018-03-30T20:47:38.943Z,8.20
2018-03-30T20:50:06.764Z,8.10
2018-03-30T20:52:34.178Z,8.10
2018-03-30T20:55:04.560Z,8.10
2018-03-30T20:57:34.555Z,8.10
2018-03-30T21:00:01.580Z,8.10
2018-03-30T21:02:28.568Z,8.20
2018-03-30T21:05:02.372Z,8.20
2018-03-30T21:07:38.181Z,8.20
2018-03-30T21:10:06.571Z,8.10
2018-03-30T21:12:37.235Z,8.00
2018-03-30T21:15:04.270Z,8.00
2018-03-30T21:17:31.264Z,7.90
2018-03-30T21:19:58.284Z,7.90
2018-03-30T21:22:26.036Z,7.80
2018-03-30T21:24:53.204Z,7.80
2018-03-30T21:27:20.200Z,7.80
2018-03-30T21:29:47.976Z,7.80
2018-03-30T21:32:15.731Z,7.70
2018-03-30T21:34:42.870Z,7.70
2018-03-30T21:37:09.931Z,7.80
2018-03-30T21:39:37.019Z,7.70
2018-03-30T21:42:04.011Z,7.70
2018-03-30T21:44:31.007Z,7.70
2018-03-30T21:46:58.034Z,7.70
2018-03-30T21:49:25.082Z,7.70
2018-03-30T21:51:52.047Z,7.70
2018-03-30T21:54:19.039Z,7.70
2018-03-30T21:56:46.255Z,7.60
2018-03-30T21:59:13.239Z,7.60
2018-03-30T22:01:40.280Z,7.60
2018-03-30T22:04:07.295Z,7.50
2018-03-30T22:06:35.158Z,7.50
2018-03-30T22:09:02.167Z,7.50
2018-03-30T22:11:29.208Z,7.50
2018-03-30T22:13:56.219Z,7.40
2018-03-30T22:16:23.234Z,7.50
2018-03-30T22:18:50.211Z,7.50
2018-03-30T22:21:18.008Z,7.50
2018-03-30T22:23:44.999Z,7.50
2018-03-30T22:26:12.055Z,7.40
2018-03-30T22:28:39.152Z,7.30
2018-03-30T22:31:06.178Z,7.20
2018-03-30T22:33:33.176Z,7.10
2018-03-30T22:36:00.990Z,6.80
2018-03-30T22:38:27.972Z,6.90
2018-03-30T22:40:54.963Z,6.70
2018-03-30T22:43:22.771Z,6.50
2018-03-30T22:45:49.759Z,6.50
2018-03-30T22:48:16.785Z,6.40
2018-03-30T22:50:43.774Z,6.20
2018-03-30T22:53:10.807Z,6.20
2018-03-30T22:55:37.853Z,6.20
2018-03-30T22:58:05.672Z,6.30
2018-03-30T23:00:32.659Z,6.30
2018-03-30T23:02:59.680Z,6.40
2018-03-30T23:05:26.836Z,6.60
2018-03-30T23:07:53.856Z,6.70
2018-03-30T23:10:20.860Z,6.70
2018-03-30T23:12:47.884Z,6.60
2018-03-30T23:15:14.880Z,6.50
2018-03-30T23:17:41.898Z,6.40
2018-03-30T23:20:08.902Z,6.30
2018-03-30T23:22:35.923Z,6.20
2018-03-30T23:25:03.105Z,6.10
2018-03-30T23:27:30.899Z,6.00
2018-03-30T23:29:57.891Z,5.90
2018-03-30T23:32:24.919Z,5.90
2018-03-30T23:34:51.907Z,5.90
2018-03-30T23:37:18.895Z,5.80
2018-03-30T23:39:45.928Z,5.70
2018-03-30T23:42:12.923Z,5.70
2018-03-30T23:44:41.533Z,5.60
2018-03-30T23:47:08.976Z,5.50
2018-03-30T23:49:36.027Z,5.40
2018-03-30T23:52:03.031Z,5.50
2018-03-30T23:54:30.056Z,5.50
2018-03-30T23:56:57.043Z,5.50
2018-03-30T23:59:26.220Z,5.50
